sensor_id;sensor_type;location;lat;lon;timestamp;P1;durP1;ratioP1;P2;durP2;ratioP2
71671;SDS011;67659;45.554;11.812;2023-04-03T00:00:28;25.23;;;14.10;;
71671;SDS011;67659;45.554;11.812;2023-04-03T00:02:55;23.77;;;13.98;;
71671;SDS011;67659;45.554;11.812;2023-04-03T00:05:20;23.73;;;15.50;;
71671;SDS011;67659;45.554;11.812;2023-04-03T00:07:46;39.78;;;21.70;;
71671;SDS011;67659;45.554;11.812;2023-04-03T00:10:14;23.90;;;15.77;;
71671;SDS011;67659;45.554;11.812;2023-04-03T00:12:40;24.55;;;15.80;;
71671;SDS011;67659;45.554;11.812;2023-04-03T00:15:06;40.87;;;22.73;;
71671;SDS011;67659;45.554;11.812;2023-04-03T00:17:32;79.18;;;37.33;;
71671;SDS011;67659;45.554;11.812;2023-04-03T00:19:58;61.55;;;30.27;;
71671;SDS011;67659;45.554;11.812;2023-04-03T00:22:24;28.07;;;18.10;;
71671;SDS011;67659;45.554;11.812;2023-04-03T00:24:51;29.17;;;17.30;;
71671;SDS011;67659;45.554;11.812;2023-04-03T00:27:17;28.42;;;17.77;;
71671;SDS011;67659;45.554;11.812;2023-04-03T00:29:43;28.00;;;16.53;;
71671;SDS011;67659;45.554;11.812;2023-04-03T00:32:09;40.30;;;24.83;;
71671;SDS011;67659;45.554;11.812;2023-04-03T00:34:34;36.90;;;22.10;;
71671;SDS011;67659;45.554;11.812;2023-04-03T00:37:00;25.90;;;17.53;;
71671;SDS011;67659;45.554;11.812;2023-04-03T00:39:26;24.23;;;16.65;;
71671;SDS011;67659;45.554;11.812;2023-04-03T00:41:52;22.55;;;15.75;;
71671;SDS011;67659;45.554;11.812;2023-04-03T00:44:19;21.87;;;14.80;;
71671;SDS011;67659;45.554;11.812;2023-04-03T00:46:45;23.02;;;14.93;;
71671;SDS011;67659;45.554;11.812;2023-04-03T00:49:11;22.87;;;15.97;;
71671;SDS011;67659;45.554;11.812;2023-04-03T00:51:36;22.88;;;15.40;;
71671;SDS011;67659;45.554;11.812;2023-04-03T00:54:02;22.87;;;15.10;;
71671;SDS011;67659;45.554;11.812;2023-04-03T00:56:32;23.60;;;16.88;;
71671;SDS011;67659;45.554;11.812;2023-04-03T01:01:27;24.52;;;15.55;;
71671;SDS011;67659;45.554;11.812;2023-04-03T01:03:54;23.23;;;15.93;;
71671;SDS011;67659;45.554;11.812;2023-04-03T01:06:21;21.27;;;14.87;;
71671;SDS011;67659;45.554;11.812;2023-04-03T01:08:51;20.90;;;13.75;;
71671;SDS011;67659;45.554;11.812;2023-04-03T01:11:17;24.48;;;15.10;;
71671;SDS011;67659;45.554;11.812;2023-04-03T01:13:43;22.35;;;14.98;;
71671;SDS011;67659;45.554;11.812;2023-04-03T01:16:09;21.33;;;14.13;;
71671;SDS011;67659;45.554;11.812;2023-04-03T01:18:36;22.60;;;14.30;;
71671;SDS011;67659;45.554;11.812;2023-04-03T01:23:41;22.48;;;14.05;;
71671;SDS011;67659;45.554;11.812;2023-04-03T01:26:14;21.93;;;13.27;;
71671;SDS011;67659;45.554;11.812;2023-04-03T01:28:40;23.00;;;14.73;;
71671;SDS011;67659;45.554;11.812;2023-04-03T01:33:38;23.92;;;15.77;;
71671;SDS011;67659;45.554;11.812;2023-04-03T01:36:04;24.73;;;15.83;;
71671;SDS011;67659;45.554;11.812;2023-04-03T01:38:31;24.60;;;15.90;;
71671;SDS011;67659;45.554;11.812;2023-04-03T01:40:56;24.20;;;15.95;;
71671;SDS011;67659;45.554;11.812;2023-04-03T01:43:22;25.47;;;16.00;;
71671;SDS011;67659;45.554;11.812;2023-04-03T01:45:48;26.05;;;15.73;;
71671;SDS011;67659;45.554;11.812;2023-04-03T01:48:15;23.75;;;14.68;;
71671;SDS011;67659;45.554;11.812;2023-04-03T01:50:41;28.10;;;15.63;;
71671;SDS011;67659;45.554;11.812;2023-04-03T01:53:07;24.83;;;15.27;;
71671;SDS011;67659;45.554;11.812;2023-04-03T01:55:33;20.90;;;13.30;;
71671;SDS011;67659;45.554;11.812;2023-04-03T01:57:59;23.13;;;14.80;;
71671;SDS011;67659;45.554;11.812;2023-04-03T02:00:25;22.15;;;13.70;;
71671;SDS011;67659;45.554;11.812;2023-04-03T02:02:51;19.98;;;13.30;;
71671;SDS011;67659;45.554;11.812;2023-04-03T02:05:18;22.00;;;13.20;;
71671;SDS011;67659;45.554;11.812;2023-04-03T02:07:43;21.13;;;12.88;;
71671;SDS011;67659;45.554;11.812;2023-04-03T02:10:09;17.05;;;11.18;;
71671;SDS011;67659;45.554;11.812;2023-04-03T02:12:35;21.35;;;12.30;;
71671;SDS011;67659;45.554;11.812;2023-04-03T02:15:01;17.30;;;11.80;;
71671;SDS011;67659;45.554;11.812;2023-04-03T02:17:27;22.77;;;13.00;;
71671;SDS011;67659;45.554;11.812;2023-04-03T02:19:53;19.63;;;11.35;;
71671;SDS011;67659;45.554;11.812;2023-04-03T02:22:18;17.00;;;10.83;;
71671;SDS011;67659;45.554;11.812;2023-04-03T02:24:45;19.40;;;11.50;;
71671;SDS011;67659;45.554;11.812;2023-04-03T02:27:10;16.37;;;10.67;;
71671;SDS011;67659;45.554;11.812;2023-04-03T02:29:36;19.30;;;11.48;;
71671;SDS011;67659;45.554;11.812;2023-04-03T02:32:02;17.77;;;10.33;;
71671;SDS011;67659;45.554;11.812;2023-04-03T02:34:28;18.25;;;10.10;;
71671;SDS011;67659;45.554;11.812;2023-04-03T02:36:53;14.38;;;9.70;;
71671;SDS011;67659;45.554;11.812;2023-04-03T02:39:19;13.93;;;8.80;;
71671;SDS011;67659;45.554;11.812;2023-04-03T02:41:45;15.15;;;9.55;;
71671;SDS011;67659;45.554;11.812;2023-04-03T02:44:11;21.07;;;10.03;;
71671;SDS011;67659;45.554;11.812;2023-04-03T02:46:37;17.42;;;9.15;;
71671;SDS011;67659;45.554;11.812;2023-04-03T02:49:02;16.92;;;8.85;;
71671;SDS011;67659;45.554;11.812;2023-04-03T02:51:28;14.38;;;8.63;;
71671;SDS011;67659;45.554;11.812;2023-04-03T02:53:54;14.87;;;8.30;;
71671;SDS011;67659;45.554;11.812;2023-04-03T02:56:20;15.25;;;8.98;;
71671;SDS011;67659;45.554;11.812;2023-04-03T02:58:46;15.43;;;8.43;;
71671;SDS011;67659;45.554;11.812;2023-04-03T03:01:12;13.90;;;7.93;;
71671;SDS011;67659;45.554;11.812;2023-04-03T03:03:38;14.85;;;7.60;;
71671;SDS011;67659;45.554;11.812;2023-04-03T03:06:04;14.85;;;7.80;;
71671;SDS011;67659;45.554;11.812;2023-04-03T03:08:31;14.30;;;8.40;;
71671;SDS011;67659;45.554;11.812;2023-04-03T03:10:57;14.38;;;7.97;;
71671;SDS011;67659;45.554;11.812;2023-04-03T03:13:23;14.98;;;8.63;;
71671;SDS011;67659;45.554;11.812;2023-04-03T03:15:50;15.10;;;8.13;;
71671;SDS011;67659;45.554;11.812;2023-04-03T03:18:15;15.07;;;8.47;;
71671;SDS011;67659;45.554;11.812;2023-04-03T03:20:41;13.57;;;8.25;;
71671;SDS011;67659;45.554;11.812;2023-04-03T03:23:07;13.32;;;8.80;;
71671;SDS011;67659;45.554;11.812;2023-04-03T03:25:33;16.33;;;8.60;;
71671;SDS011;67659;45.554;11.812;2023-04-03T03:27:58;13.23;;;8.43;;
71671;SDS011;67659;45.554;11.812;2023-04-03T03:30:24;13.47;;;8.13;;
71671;SDS011;67659;45.554;11.812;2023-04-03T03:32:51;17.10;;;9.30;;
71671;SDS011;67659;45.554;11.812;2023-04-03T03:35:16;14.50;;;7.88;;
71671;SDS011;67659;45.554;11.812;2023-04-03T03:37:42;13.27;;;8.03;;
71671;SDS011;67659;45.554;11.812;2023-04-03T03:40:08;16.35;;;8.95;;
71671;SDS011;67659;45.554;11.812;2023-04-03T03:42:35;14.57;;;8.20;;
71671;SDS011;67659;45.554;11.812;2023-04-03T03:45:01;13.82;;;8.10;;
71671;SDS011;67659;45.554;11.812;2023-04-03T03:47:26;14.53;;;8.43;;
71671;SDS011;67659;45.554;11.812;2023-04-03T03:49:52;12.73;;;8.23;;
71671;SDS011;67659;45.554;11.812;2023-04-03T03:52:18;14.98;;;8.10;;
71671;SDS011;67659;45.554;11.812;2023-04-03T03:54:43;13.80;;;7.80;;
71671;SDS011;67659;45.554;11.812;2023-04-03T03:57:09;18.02;;;7.93;;
71671;SDS011;67659;45.554;11.812;2023-04-03T03:59:35;15.27;;;8.30;;
71671;SDS011;67659;45.554;11.812;2023-04-03T04:02:01;14.85;;;7.68;;
71671;SDS011;67659;45.554;11.812;2023-04-03T04:04:27;12.05;;;7.15;;
71671;SDS011;67659;45.554;11.812;2023-04-03T04:06:53;15.13;;;8.20;;
71671;SDS011;67659;45.554;11.812;2023-04-03T04:09:18;12.27;;;7.47;;
71671;SDS011;67659;45.554;11.812;2023-04-03T04:11:44;13.07;;;8.00;;
71671;SDS011;67659;45.554;11.812;2023-04-03T04:14:10;17.17;;;9.23;;
71671;SDS011;67659;45.554;11.812;2023-04-03T04:16:37;17.20;;;9.20;;
71671;SDS011;67659;45.554;11.812;2023-04-03T04:19:03;16.27;;;9.80;;
71671;SDS011;67659;45.554;11.812;2023-04-03T04:21:28;16.92;;;9.40;;
71671;SDS011;67659;45.554;11.812;2023-04-03T04:23:54;17.80;;;9.50;;
71671;SDS011;67659;45.554;11.812;2023-04-03T04:26:21;16.00;;;9.50;;
71671;SDS011;67659;45.554;11.812;2023-04-03T04:28:47;17.50;;;9.73;;
71671;SDS011;67659;45.554;11.812;2023-04-03T04:31:13;14.45;;;8.05;;
71671;SDS011;67659;45.554;11.812;2023-04-03T04:33:38;14.57;;;8.47;;
71671;SDS011;67659;45.554;11.812;2023-04-03T04:36:04;15.70;;;7.57;;
71671;SDS011;67659;45.554;11.812;2023-04-03T04:38:30;13.50;;;7.05;;
71671;SDS011;67659;45.554;11.812;2023-04-03T04:40:56;13.57;;;6.82;;
71671;SDS011;67659;45.554;11.812;2023-04-03T04:43:22;14.03;;;6.80;;
71671;SDS011;67659;45.554;11.812;2023-04-03T04:45:48;11.93;;;6.40;;
71671;SDS011;67659;45.554;11.812;2023-04-03T04:48:13;11.80;;;7.03;;
71671;SDS011;67659;45.554;11.812;2023-04-03T04:50:39;12.23;;;7.30;;
71671;SDS011;67659;45.554;11.812;2023-04-03T04:53:05;12.10;;;6.47;;
71671;SDS011;67659;45.554;11.812;2023-04-03T04:55:30;14.35;;;7.45;;
71671;SDS011;67659;45.554;11.812;2023-04-03T04:57:56;11.80;;;6.03;;
71671;SDS011;67659;45.554;11.812;2023-04-03T05:00:22;13.45;;;7.10;;
71671;SDS011;67659;45.554;11.812;2023-04-03T05:02:48;13.30;;;7.40;;
71671;SDS011;67659;45.554;11.812;2023-04-03T05:05:13;13.47;;;7.60;;
71671;SDS011;67659;45.554;11.812;2023-04-03T05:07:39;13.93;;;7.25;;
71671;SDS011;67659;45.554;11.812;2023-04-03T05:10:06;15.73;;;8.10;;
71671;SDS011;67659;45.554;11.812;2023-04-03T05:12:32;12.50;;;7.43;;
71671;SDS011;67659;45.554;11.812;2023-04-03T05:14:58;16.42;;;8.73;;
71671;SDS011;67659;45.554;11.812;2023-04-03T05:17:24;13.67;;;7.63;;
71671;SDS011;67659;45.554;11.812;2023-04-03T05:19:49;12.95;;;7.80;;
71671;SDS011;67659;45.554;11.812;2023-04-03T05:22:15;14.13;;;7.10;;
71671;SDS011;67659;45.554;11.812;2023-04-03T05:24:41;17.80;;;8.35;;
71671;SDS011;67659;45.554;11.812;2023-04-03T05:27:07;15.40;;;7.93;;
71671;SDS011;67659;45.554;11.812;2023-04-03T05:29:32;12.73;;;6.40;;
71671;SDS011;67659;45.554;11.812;2023-04-03T05:31:58;11.98;;;6.90;;
71671;SDS011;67659;45.554;11.812;2023-04-03T05:34:24;10.87;;;6.47;;
71671;SDS011;67659;45.554;11.812;2023-04-03T05:36:50;15.70;;;7.47;;
71671;SDS011;67659;45.554;11.812;2023-04-03T05:39:16;11.57;;;6.73;;
71671;SDS011;67659;45.554;11.812;2023-04-03T05:41:41;11.97;;;6.13;;
71671;SDS011;67659;45.554;11.812;2023-04-03T05:44:07;10.73;;;6.20;;
71671;SDS011;67659;45.554;11.812;2023-04-03T05:46:33;11.73;;;6.30;;
71671;SDS011;67659;45.554;11.812;2023-04-03T05:48:58;10.88;;;6.00;;
71671;SDS011;67659;45.554;11.812;2023-04-03T05:51:25;11.20;;;5.73;;
71671;SDS011;67659;45.554;11.812;2023-04-03T05:53:59;9.85;;;4.93;;
71671;SDS011;67659;45.554;11.812;2023-04-03T05:56:31;9.15;;;3.90;;
71671;SDS011;67659;45.554;11.812;2023-04-03T05:58:56;7.90;;;3.63;;
71671;SDS011;67659;45.554;11.812;2023-04-03T06:01:22;8.45;;;3.50;;
71671;SDS011;67659;45.554;11.812;2023-04-03T06:03:48;8.13;;;3.30;;
71671;SDS011;67659;45.554;11.812;2023-04-03T06:06:14;9.70;;;3.60;;
71671;SDS011;67659;45.554;11.812;2023-04-03T06:08:40;7.47;;;3.33;;
71671;SDS011;67659;45.554;11.812;2023-04-03T06:11:06;9.10;;;3.42;;
71671;SDS011;67659;45.554;11.812;2023-04-03T06:13:33;8.35;;;3.22;;
71671;SDS011;67659;45.554;11.812;2023-04-03T06:16:00;8.50;;;3.17;;
71671;SDS011;67659;45.554;11.812;2023-04-03T06:18:26;6.82;;;3.30;;
71671;SDS011;67659;45.554;11.812;2023-04-03T06:20:51;7.30;;;3.22;;
71671;SDS011;67659;45.554;11.812;2023-04-03T06:23:17;6.40;;;3.10;;
71671;SDS011;67659;45.554;11.812;2023-04-03T06:25:43;6.65;;;3.17;;
71671;SDS011;67659;45.554;11.812;2023-04-03T06:28:09;8.10;;;3.43;;
71671;SDS011;67659;45.554;11.812;2023-04-03T06:30:35;8.45;;;3.38;;
71671;SDS011;67659;45.554;11.812;2023-04-03T06:33:02;7.90;;;3.40;;
71671;SDS011;67659;45.554;11.812;2023-04-03T06:35:28;9.15;;;3.83;;
71671;SDS011;67659;45.554;11.812;2023-04-03T06:37:55;7.20;;;3.15;;
71671;SDS011;67659;45.554;11.812;2023-04-03T06:40:22;7.77;;;3.17;;
71671;SDS011;67659;45.554;11.812;2023-04-03T06:42:50;8.80;;;3.00;;
71671;SDS011;67659;45.554;11.812;2023-04-03T06:45:16;7.22;;;2.90;;
71671;SDS011;67659;45.554;11.812;2023-04-03T06:47:42;6.23;;;2.67;;
71671;SDS011;67659;45.554;11.812;2023-04-03T06:50:09;5.28;;;2.08;;
71671;SDS011;67659;45.554;11.812;2023-04-03T06:52:36;9.27;;;2.50;;
71671;SDS011;67659;45.554;11.812;2023-04-03T06:55:02;7.05;;;2.42;;
71671;SDS011;67659;45.554;11.812;2023-04-03T06:57:29;6.97;;;2.30;;
71671;SDS011;67659;45.554;11.812;2023-04-03T06:59:55;7.60;;;2.33;;
71671;SDS011;67659;45.554;11.812;2023-04-03T07:02:20;7.35;;;2.60;;
71671;SDS011;67659;45.554;11.812;2023-04-03T07:04:46;6.95;;;2.10;;
71671;SDS011;67659;45.554;11.812;2023-04-03T07:07:12;6.63;;;2.00;;
71671;SDS011;67659;45.554;11.812;2023-04-03T07:09:38;7.68;;;2.22;;
71671;SDS011;67659;45.554;11.812;2023-04-03T07:12:05;5.23;;;1.90;;
71671;SDS011;67659;45.554;11.812;2023-04-03T07:14:31;6.38;;;2.10;;
71671;SDS011;67659;45.554;11.812;2023-04-03T07:16:56;7.68;;;1.95;;
71671;SDS011;67659;45.554;11.812;2023-04-03T07:19:22;8.93;;;2.23;;
71671;SDS011;67659;45.554;11.812;2023-04-03T07:21:49;7.20;;;2.00;;
71671;SDS011;67659;45.554;11.812;2023-04-03T07:24:15;6.70;;;2.30;;
71671;SDS011;67659;45.554;11.812;2023-04-03T07:26:41;7.77;;;2.07;;
71671;SDS011;67659;45.554;11.812;2023-04-03T07:29:06;7.55;;;2.08;;
71671;SDS011;67659;45.554;11.812;2023-04-03T07:31:32;9.98;;;2.53;;
71671;SDS011;67659;45.554;11.812;2023-04-03T07:33:58;7.67;;;2.27;;
71671;SDS011;67659;45.554;11.812;2023-04-03T07:36:24;6.75;;;2.08;;
71671;SDS011;67659;45.554;11.812;2023-04-03T07:38:51;6.32;;;2.28;;
71671;SDS011;67659;45.554;11.812;2023-04-03T07:41:17;8.10;;;2.50;;
71671;SDS011;67659;45.554;11.812;2023-04-03T07:43:45;5.47;;;1.80;;
71671;SDS011;67659;45.554;11.812;2023-04-03T07:46:12;7.60;;;1.75;;
71671;SDS011;67659;45.554;11.812;2023-04-03T07:48:38;6.97;;;2.20;;
71671;SDS011;67659;45.554;11.812;2023-04-03T07:51:04;7.40;;;1.88;;
71671;SDS011;67659;45.554;11.812;2023-04-03T07:53:30;8.13;;;2.20;;
71671;SDS011;67659;45.554;11.812;2023-04-03T07:55:57;7.53;;;1.95;;
71671;SDS011;67659;45.554;11.812;2023-04-03T07:58:23;7.93;;;2.15;;
71671;SDS011;67659;45.554;11.812;2023-04-03T08:00:49;8.18;;;2.25;;
71671;SDS011;67659;45.554;11.812;2023-04-03T08:03:15;10.27;;;2.05;;
71671;SDS011;67659;45.554;11.812;2023-04-03T08:05:43;5.20;;;1.60;;
71671;SDS011;67659;45.554;11.812;2023-04-03T08:08:12;7.72;;;1.75;;
71671;SDS011;67659;45.554;11.812;2023-04-03T08:10:39;6.28;;;1.77;;
71671;SDS011;67659;45.554;11.812;2023-04-03T08:13:06;7.95;;;1.90;;
71671;SDS011;67659;45.554;11.812;2023-04-03T08:15:33;7.15;;;1.85;;
71671;SDS011;67659;45.554;11.812;2023-04-03T08:17:59;7.43;;;1.70;;
71671;SDS011;67659;45.554;11.812;2023-04-03T08:20:26;6.68;;;1.92;;
71671;SDS011;67659;45.554;11.812;2023-04-03T08:22:52;7.22;;;2.03;;
71671;SDS011;67659;45.554;11.812;2023-04-03T08:25:18;6.22;;;1.95;;
71671;SDS011;67659;45.554;11.812;2023-04-03T08:27:44;7.63;;;1.73;;
71671;SDS011;67659;45.554;11.812;2023-04-03T08:30:10;6.97;;;1.80;;
71671;SDS011;67659;45.554;11.812;2023-04-03T08:32:36;7.18;;;1.92;;
71671;SDS011;67659;45.554;11.812;2023-04-03T08:35:03;7.50;;;1.70;;
71671;SDS011;67659;45.554;11.812;2023-04-03T08:37:29;7.00;;;1.80;;
71671;SDS011;67659;45.554;11.812;2023-04-03T08:39:55;7.93;;;2.20;;
71671;SDS011;67659;45.554;11.812;2023-04-03T08:48:15;7.10;;;2.00;;
71671;SDS011;67659;45.554;11.812;2023-04-03T08:50:58;7.70;;;2.03;;
71671;SDS011;67659;45.554;11.812;2023-04-03T08:53:28;7.40;;;2.10;;
71671;SDS011;67659;45.554;11.812;2023-04-03T08:55:57;5.75;;;1.98;;
71671;SDS011;67659;45.554;11.812;2023-04-03T08:58:29;6.90;;;1.95;;
71671;SDS011;67659;45.554;11.812;2023-04-03T09:03:31;8.57;;;2.50;;
71671;SDS011;67659;45.554;11.812;2023-04-03T09:06:04;6.40;;;2.28;;
71671;SDS011;67659;45.554;11.812;2023-04-03T09:15:02;6.55;;;2.20;;
71671;SDS011;67659;45.554;11.812;2023-04-03T09:23:04;8.13;;;2.30;;
71671;SDS011;67659;45.554;11.812;2023-04-03T09:25:49;7.82;;;2.13;;
71671;SDS011;67659;45.554;11.812;2023-04-03T09:28:19;11.73;;;2.35;;
71671;SDS011;67659;45.554;11.812;2023-04-03T09:30:45;7.70;;;2.00;;
71671;SDS011;67659;45.554;11.812;2023-04-03T09:33:12;9.00;;;2.28;;
71671;SDS011;67659;45.554;11.812;2023-04-03T09:35:38;8.25;;;2.60;;
71671;SDS011;67659;45.554;11.812;2023-04-03T09:40:38;6.68;;;2.70;;
71671;SDS011;67659;45.554;11.812;2023-04-03T09:45:54;6.10;;;2.20;;
71671;SDS011;67659;45.554;11.812;2023-04-03T09:48:25;6.40;;;2.03;;
71671;SDS011;67659;45.554;11.812;2023-04-03T09:50:58;6.10;;;1.98;;
71671;SDS011;67659;45.554;11.812;2023-04-03T09:55:57;6.40;;;2.30;;
71671;SDS011;67659;45.554;11.812;2023-04-03T09:58:36;8.77;;;2.50;;
71671;SDS011;67659;45.554;11.812;2023-04-03T10:01:05;6.60;;;2.13;;
71671;SDS011;67659;45.554;11.812;2023-04-03T10:03:45;6.72;;;2.15;;
71671;SDS011;67659;45.554;11.812;2023-04-03T10:06:30;7.05;;;2.00;;
71671;SDS011;67659;45.554;11.812;2023-04-03T10:09:04;7.67;;;2.37;;
71671;SDS011;67659;45.554;11.812;2023-04-03T10:11:50;8.73;;;2.28;;
71671;SDS011;67659;45.554;11.812;2023-04-03T10:14:37;7.32;;;2.25;;
71671;SDS011;67659;45.554;11.812;2023-04-03T10:25:21;14.77;;;2.40;;
71671;SDS011;67659;45.554;11.812;2023-04-03T10:27:55;11.30;;;2.47;;
71671;SDS011;67659;45.554;11.812;2023-04-03T10:30:45;11.35;;;2.33;;
71671;SDS011;67659;45.554;11.812;2023-04-03T10:41:46;7.07;;;2.30;;
71671;SDS011;67659;45.554;11.812;2023-04-03T10:47:30;7.70;;;2.33;;
71671;SDS011;67659;45.554;11.812;2023-04-03T10:50:21;9.27;;;2.70;;
71671;SDS011;67659;45.554;11.812;2023-04-03T10:53:37;8.60;;;2.40;;
71671;SDS011;67659;45.554;11.812;2023-04-03T10:58:58;6.82;;;2.38;;
71671;SDS011;67659;45.554;11.812;2023-04-03T11:01:30;8.20;;;2.63;;
71671;SDS011;67659;45.554;11.812;2023-04-03T11:03:59;8.03;;;2.40;;
71671;SDS011;67659;45.554;11.812;2023-04-03T11:06:40;12.13;;;2.53;;
71671;SDS011;67659;45.554;11.812;2023-04-03T11:09:34;8.27;;;2.42;;
71671;SDS011;67659;45.554;11.812;2023-04-03T11:12:23;11.35;;;2.50;;
71671;SDS011;67659;45.554;11.812;2023-04-03T11:14:53;7.60;;;2.35;;
71671;SDS011;67659;45.554;11.812;2023-04-03T11:22:50;11.27;;;2.60;;
71671;SDS011;67659;45.554;11.812;2023-04-03T11:25:24;6.30;;;2.50;;
71671;SDS011;67659;45.554;11.812;2023-04-03T11:33:21;7.22;;;2.40;;
71671;SDS011;67659;45.554;11.812;2023-04-03T11:36:26;8.68;;;2.63;;
71671;SDS011;67659;45.554;11.812;2023-04-03T11:38:59;9.02;;;2.60;;
71671;SDS011;67659;45.554;11.812;2023-04-03T11:41:32;9.02;;;2.30;;
71671;SDS011;67659;45.554;11.812;2023-04-03T11:47:01;6.60;;;2.30;;
71671;SDS011;67659;45.554;11.812;2023-04-03T12:08:28;8.48;;;2.33;;
71671;SDS011;67659;45.554;11.812;2023-04-03T12:13:38;10.40;;;2.20;;
71671;SDS011;67659;45.554;11.812;2023-04-03T12:16:27;12.60;;;2.00;;
71671;SDS011;67659;45.554;11.812;2023-04-03T12:19:00;8.02;;;2.30;;
71671;SDS011;67659;45.554;11.812;2023-04-03T12:30:00;9.20;;;2.50;;
71671;SDS011;67659;45.554;11.812;2023-04-03T12:35:22;6.73;;;2.30;;
71671;SDS011;67659;45.554;11.812;2023-04-03T12:44:13;8.90;;;2.10;;
71671;SDS011;67659;45.554;11.812;2023-04-03T12:47:02;6.60;;;2.00;;
71671;SDS011;67659;45.554;11.812;2023-04-03T12:49:52;7.20;;;2.60;;
71671;SDS011;67659;45.554;11.812;2023-04-03T12:52:22;8.05;;;2.22;;
71671;SDS011;67659;45.554;11.812;2023-04-03T12:54:57;7.80;;;2.75;;
71671;SDS011;67659;45.554;11.812;2023-04-03T12:57:29;7.05;;;2.72;;
71671;SDS011;67659;45.554;11.812;2023-04-03T12:59:55;5.10;;;2.45;;
71671;SDS011;67659;45.554;11.812;2023-04-03T13:02:23;7.03;;;2.70;;
71671;SDS011;67659;45.554;11.812;2023-04-03T13:04:59;6.05;;;2.55;;
71671;SDS011;67659;45.554;11.812;2023-04-03T13:07:32;5.10;;;2.40;;
71671;SDS011;67659;45.554;11.812;2023-04-03T13:12:48;12.23;;;2.75;;
71671;SDS011;67659;45.554;11.812;2023-04-03T13:15:20;6.77;;;2.20;;
71671;SDS011;67659;45.554;11.812;2023-04-03T13:17:47;7.15;;;2.40;;
71671;SDS011;67659;45.554;11.812;2023-04-03T13:20:21;6.95;;;2.20;;
71671;SDS011;67659;45.554;11.812;2023-04-03T13:22:48;5.75;;;2.25;;
71671;SDS011;67659;45.554;11.812;2023-04-03T13:25:21;6.45;;;2.70;;
71671;SDS011;67659;45.554;11.812;2023-04-03T13:27:49;8.37;;;2.90;;
71671;SDS011;67659;45.554;11.812;2023-04-03T13:30:26;7.05;;;2.50;;
71671;SDS011;67659;45.554;11.812;2023-04-03T13:32:59;5.50;;;2.58;;
71671;SDS011;67659;45.554;11.812;2023-04-03T13:35:29;6.78;;;2.53;;
71671;SDS011;67659;45.554;11.812;2023-04-03T13:37:59;9.82;;;2.30;;
71671;SDS011;67659;45.554;11.812;2023-04-03T13:40:49;5.33;;;1.70;;
71671;SDS011;67659;45.554;11.812;2023-04-03T13:43:21;8.23;;;2.30;;
71671;SDS011;67659;45.554;11.812;2023-04-03T13:45:57;5.50;;;1.80;;
71671;SDS011;67659;45.554;11.812;2023-04-03T13:48:43;11.40;;;1.90;;
71671;SDS011;67659;45.554;11.812;2023-04-03T13:53:43;6.97;;;2.03;;
71671;SDS011;67659;45.554;11.812;2023-04-03T13:56:34;6.63;;;1.83;;
71671;SDS011;67659;45.554;11.812;2023-04-03T14:04:20;8.50;;;2.00;;
71671;SDS011;67659;45.554;11.812;2023-04-03T14:06:51;8.63;;;1.73;;
71671;SDS011;67659;45.554;11.812;2023-04-03T14:09:18;7.88;;;1.60;;
71671;SDS011;67659;45.554;11.812;2023-04-03T14:11:46;7.05;;;1.90;;
71671;SDS011;67659;45.554;11.812;2023-04-03T14:14:26;11.05;;;1.95;;
71671;SDS011;67659;45.554;11.812;2023-04-03T14:16:56;10.30;;;1.75;;
71671;SDS011;67659;45.554;11.812;2023-04-03T14:19:31;6.23;;;1.40;;
71671;SDS011;67659;45.554;11.812;2023-04-03T14:22:00;8.10;;;1.70;;
71671;SDS011;67659;45.554;11.812;2023-04-03T14:24:31;6.88;;;1.70;;
71671;SDS011;67659;45.554;11.812;2023-04-03T14:26:57;6.82;;;1.55;;
71671;SDS011;67659;45.554;11.812;2023-04-03T14:29:24;6.15;;;1.33;;
71671;SDS011;67659;45.554;11.812;2023-04-03T14:31:50;7.10;;;1.60;;
71671;SDS011;67659;45.554;11.812;2023-04-03T14:34:16;5.40;;;1.15;;
71671;SDS011;67659;45.554;11.812;2023-04-03T14:36:44;4.10;;;1.10;;
71671;SDS011;67659;45.554;11.812;2023-04-03T14:39:15;6.70;;;1.60;;
71671;SDS011;67659;45.554;11.812;2023-04-03T14:41:43;6.63;;;1.60;;
71671;SDS011;67659;45.554;11.812;2023-04-03T14:44:09;8.63;;;1.70;;
71671;SDS011;67659;45.554;11.812;2023-04-03T14:46:36;4.90;;;1.33;;
71671;SDS011;67659;45.554;11.812;2023-04-03T14:49:04;5.47;;;1.23;;
71671;SDS011;67659;45.554;11.812;2023-04-03T14:51:45;6.50;;;1.30;;
71671;SDS011;67659;45.554;11.812;2023-04-03T14:54:16;5.15;;;1.20;;
71671;SDS011;67659;45.554;11.812;2023-04-03T14:56:44;7.65;;;1.23;;
71671;SDS011;67659;45.554;11.812;2023-04-03T14:59:13;4.78;;;1.58;;
71671;SDS011;67659;45.554;11.812;2023-04-03T15:01:40;4.77;;;1.33;;
71671;SDS011;67659;45.554;11.812;2023-04-03T15:04:13;4.25;;;1.15;;
71671;SDS011;67659;45.554;11.812;2023-04-03T15:06:41;3.92;;;1.00;;
71671;SDS011;67659;45.554;11.812;2023-04-03T15:09:23;6.60;;;1.60;;
71671;SDS011;67659;45.554;11.812;2023-04-03T15:11:51;6.47;;;1.10;;
71671;SDS011;67659;45.554;11.812;2023-04-03T15:14:18;6.10;;;1.30;;
71671;SDS011;67659;45.554;11.812;2023-04-03T15:16:44;7.45;;;1.30;;
71671;SDS011;67659;45.554;11.812;2023-04-03T15:19:10;9.65;;;2.15;;
71671;SDS011;67659;45.554;11.812;2023-04-03T15:21:37;4.60;;;1.00;;
71671;SDS011;67659;45.554;11.812;2023-04-03T15:24:04;4.80;;;1.03;;
71671;SDS011;67659;45.554;11.812;2023-04-03T15:26:29;5.22;;;1.02;;
71671;SDS011;67659;45.554;11.812;2023-04-03T15:28:56;5.55;;;1.05;;
71671;SDS011;67659;45.554;11.812;2023-04-03T15:31:22;5.30;;;0.90;;
71671;SDS011;67659;45.554;11.812;2023-04-03T15:33:48;4.20;;;1.10;;
71671;SDS011;67659;45.554;11.812;2023-04-03T15:36:13;8.00;;;1.45;;
71671;SDS011;67659;45.554;11.812;2023-04-03T15:38:39;5.50;;;1.10;;
71671;SDS011;67659;45.554;11.812;2023-04-03T15:41:05;4.45;;;1.08;;
71671;SDS011;67659;45.554;11.812;2023-04-03T15:43:31;6.72;;;1.25;;
71671;SDS011;67659;45.554;11.812;2023-04-03T15:45:59;3.83;;;1.13;;
71671;SDS011;67659;45.554;11.812;2023-04-03T15:48:26;4.07;;;1.02;;
71671;SDS011;67659;45.554;11.812;2023-04-03T15:50:52;3.70;;;0.95;;
71671;SDS011;67659;45.554;11.812;2023-04-03T15:53:18;7.07;;;2.22;;
71671;SDS011;67659;45.554;11.812;2023-04-03T15:55:44;3.53;;;1.03;;
71671;SDS011;67659;45.554;11.812;2023-04-03T15:58:10;7.93;;;1.27;;
71671;SDS011;67659;45.554;11.812;2023-04-03T16:00:36;5.55;;;1.45;;
71671;SDS011;67659;45.554;11.812;2023-04-03T16:03:09;2.83;;;1.05;;
71671;SDS011;67659;45.554;11.812;2023-04-03T16:05:38;3.27;;;1.10;;
71671;SDS011;67659;45.554;11.812;2023-04-03T16:08:05;6.43;;;1.30;;
71671;SDS011;67659;45.554;11.812;2023-04-03T16:10:32;5.57;;;1.00;;
71671;SDS011;67659;45.554;11.812;2023-04-03T16:12:59;4.72;;;0.95;;
71671;SDS011;67659;45.554;11.812;2023-04-03T16:15:25;4.40;;;1.20;;
71671;SDS011;67659;45.554;11.812;2023-04-03T16:17:51;5.38;;;1.20;;
71671;SDS011;67659;45.554;11.812;2023-04-03T16:20:18;5.43;;;1.20;;
71671;SDS011;67659;45.554;11.812;2023-04-03T16:22:44;4.15;;;1.10;;
71671;SDS011;67659;45.554;11.812;2023-04-03T16:25:11;5.13;;;1.30;;
71671;SDS011;67659;45.554;11.812;2023-04-03T16:27:37;4.97;;;1.10;;
71671;SDS011;67659;45.554;11.812;2023-04-03T16:30:03;3.92;;;1.13;;
71671;SDS011;67659;45.554;11.812;2023-04-03T16:32:30;6.18;;;1.20;;
71671;SDS011;67659;45.554;11.812;2023-04-03T16:34:57;6.30;;;1.00;;